createdAt,value
2023-01-23T00:02:09.966Z,-1.30
2023-01-23T00:07:11.660Z,-1.30
2023-01-23T00:12:13.418Z,-1.30
2023-01-23T00:17:15.193Z,-1.30
2023-01-23T00:22:17.049Z,-1.30
2023-01-23T00:27:19.063Z,-1.30
2023-01-23T00:32:21.328Z,-1.40
2023-01-23T00:37:23.029Z,-1.40
2023-01-23T00:42:24.919Z,-1.40
2023-01-23T00:47:26.783Z,-1.40
2023-01-23T00:52:29.316Z,-1.30
2023-01-23T00:57:31.099Z,-1.40
2023-01-23T01:02:32.839Z,-1.30
2023-01-23T01:07:34.905Z,-1.30
2023-01-23T01:12:36.788Z,-1.30
2023-01-23T01:17:39.781Z,-1.40
2023-01-23T01:22:41.696Z,-1.40
2023-01-23T01:27:43.812Z,-1.30
2023-01-23T01:32:45.610Z,-1.30
2023-01-23T01:37:47.711Z,-1.30
2023-01-23T01:43:17.446Z,-1.30
2023-01-23T01:48:24.571Z,-1.40
2023-01-23T01:53:28.987Z,-1.30
2023-01-23T01:58:31.110Z,-1.30
2023-01-23T02:03:32.981Z,-1.30
2023-01-23T02:09:02.052Z,-1.30
2023-01-23T02:14:06.589Z,-1.30
2023-01-23T02:19:22.041Z,-1.40
2023-01-23T02:24:35.251Z,-1.40
2023-01-23T02:29:43.117Z,-1.50
2023-01-23T02:34:45.133Z,-1.40
2023-01-23T02:39:47.979Z,-1.50
2023-01-23T02:44:50.126Z,-1.50
2023-01-23T02:49:52.087Z,-1.40
2023-01-23T02:54:53.873Z,-1.40
2023-01-23T03:00:16.227Z,-1.40
2023-01-23T03:05:18.791Z,-1.40
2023-01-23T03:10:21.148Z,-1.40
2023-01-23T03:15:23.212Z,-1.30
2023-01-23T03:20:26.866Z,-1.40
2023-01-23T03:25:28.612Z,-1.40
2023-01-23T03:30:30.587Z,-1.40
2023-01-23T03:35:32.819Z,-1.40
2023-01-23T03:40:53.192Z,-1.40
2023-01-23T03:45:54.971Z,-1.40
2023-01-23T03:50:56.781Z,-1.40
2023-01-23T03:55:58.548Z,-1.30
2023-01-23T04:01:03.530Z,-1.40
2023-01-23T04:06:05.433Z,-1.30
2023-01-23T04:11:09.970Z,-1.30
2023-01-23T04:16:12.232Z,-1.30
2023-01-23T04:21:14.117Z,-1.30
2023-01-23T04:26:15.891Z,-1.30
2023-01-23T04:31:17.727Z,-1.30
2023-01-23T04:36:19.548Z,-1.30
2023-01-23T04:41:24.292Z,-1.30
2023-01-23T04:46:26.082Z,-1.40
2023-01-23T04:51:27.904Z,-1.40
2023-01-23T04:56:29.893Z,-1.40
2023-01-23T05:01:31.885Z,-1.40
2023-01-23T05:06:33.759Z,-1.30
2023-01-23T05:11:35.607Z,-1.40
2023-01-23T05:16:37.545Z,-1.40
2023-01-23T05:21:39.338Z,-1.30
2023-01-23T05:26:41.128Z,-1.30
2023-01-23T05:31:42.943Z,-1.30
2023-01-23T05:36:44.677Z,-1.50
2023-01-23T05:41:46.465Z,-1.40
2023-01-23T05:46:48.198Z,-1.40
2023-01-23T05:51:49.916Z,-1.30
2023-01-23T05:56:51.685Z,-1.30
2023-01-23T06:01:53.393Z,-1.30
2023-01-23T06:06:55.084Z,-1.20
2023-01-23T06:11:56.774Z,-1.20
2023-01-23T06:16:58.558Z,-1.10
2023-01-23T06:22:00.421Z,-1.20
2023-01-23T06:27:04.162Z,-1.20
2023-01-23T06:32:06.283Z,-1.20
2023-01-23T06:37:09.548Z,-1.20
2023-01-23T06:42:11.343Z,-1.30
2023-01-23T06:47:13.081Z,-1.30
2023-01-23T06:52:14.748Z,-1.20
2023-01-23T06:57:16.630Z,-1.20
2023-01-23T07:02:18.433Z,-1.10
2023-01-23T07:07:20.196Z,-1.10
2023-01-23T07:12:21.873Z,-1.10
2023-01-23T07:17:23.954Z,-1.20
2023-01-23T07:22:25.684Z,-1.10
2023-01-23T07:27:27.984Z,-1.00
2023-01-23T07:32:29.725Z,-1.10
2023-01-23T07:37:31.461Z,-1.10
2023-01-23T07:42:33.258Z,-1.10
2023-01-23T07:47:35.483Z,-1.10
2023-01-23T07:52:37.615Z,-1.00
2023-01-23T07:57:39.379Z,-1.00
2023-01-23T08:02:41.171Z,-1.10
2023-01-23T08:07:43.055Z,-1.10
2023-01-23T08:12:44.868Z,-1.00
2023-01-23T08:17:46.754Z,-1.10
2023-01-23T08:22:48.523Z,-1.00
2023-01-23T08:27:50.318Z,-1.00
2023-01-23T08:32:52.393Z,-0.90
2023-01-23T08:37:54.382Z,-0.90
2023-01-23T08:42:57.467Z,-0.70
2023-01-23T08:47:59.403Z,-0.80
2023-01-23T08:53:01.619Z,-0.80
2023-01-23T08:58:03.376Z,-0.80
2023-01-23T09:03:05.490Z,-0.60
2023-01-23T09:08:07.237Z,-0.50
2023-01-23T09:13:08.972Z,-0.40
2023-01-23T09:18:10.724Z,-0.30
2023-01-23T09:23:12.455Z,-0.40
2023-01-23T09:28:14.470Z,-0.20
2023-01-23T09:33:17.155Z,-0.30
2023-01-23T09:38:19.151Z,-0.30
2023-01-23T09:43:39.962Z,-0.10
2023-01-23T09:48:46.552Z,-0.10
2023-01-23T09:53:48.387Z,0.10
2023-01-23T09:59:03.785Z,0.00
2023-01-23T10:04:06.186Z,0.10
2023-01-23T10:09:20.815Z,0.20
2023-01-23T10:14:44.629Z,0.20
2023-01-23T10:19:46.608Z,0.10
2023-01-23T10:24:57.346Z,0.20
2023-01-23T10:30:18.857Z,0.30
2023-01-23T10:35:34.739Z,0.30
2023-01-23T10:40:55.392Z,0.20
2023-01-23T10:45:57.187Z,0.20
2023-01-23T10:51:00.105Z,0.20
2023-01-23T10:56:01.986Z,0.20
2023-01-23T11:01:04.966Z,0.30
2023-01-23T11:06:08.787Z,0.30
2023-01-23T11:11:14.773Z,0.10
2023-01-23T11:16:22.345Z,0.00
2023-01-23T11:21:28.740Z,0.30
2023-01-23T11:26:32.485Z,0.30
2023-01-23T11:31:34.436Z,0.10
2023-01-23T11:36:50.483Z,0.00
2023-01-23T11:41:52.488Z,0.10
2023-01-23T11:47:12.780Z,0.20
2023-01-23T11:52:25.067Z,0.30
2023-01-23T11:58:00.023Z,0.30
2023-01-23T12:03:27.636Z,0.50
2023-01-23T12:08:52.343Z,0.40
2023-01-23T12:14:03.065Z,0.40
2023-01-23T12:19:24.841Z,0.40
2023-01-23T12:24:56.995Z,0.40
2023-01-23T12:30:24.875Z,0.30
2023-01-23T12:35:44.744Z,0.20
2023-01-23T12:41:06.904Z,0.30
2023-01-23T12:46:14.730Z,0.20
2023-01-23T12:51:29.321Z,0.20
2023-01-23T12:56:35.973Z,0.10
2023-01-23T13:01:53.247Z,0.00
2023-01-23T13:07:22.654Z,0.00
2023-01-23T13:12:27.035Z,-0.10
2023-01-23T13:17:51.079Z,0.00
2023-01-23T13:22:52.826Z,-0.10
2023-01-23T13:27:58.909Z,-0.10
2023-01-23T13:33:21.971Z,-0.10
2023-01-23T13:38:26.126Z,-0.20
2023-01-23T13:43:49.977Z,-0.20
2023-01-23T14:21:41.231Z,-0.30
2023-01-23T14:26:50.292Z,-0.30
2023-01-23T14:31:52.298Z,-0.30
2023-01-23T14:37:04.868Z,-0.40
2023-01-23T14:42:11.671Z,-0.40
2023-01-23T14:47:28.227Z,-0.40
2023-01-23T14:52:31.953Z,-0.40
2023-01-23T14:57:34.058Z,-0.40
2023-01-23T15:02:36.567Z,-0.40
2023-01-23T15:07:55.997Z,-0.50
2023-01-23T15:13:09.834Z,-0.60
2023-01-23T15:18:27.779Z,-0.50
2023-01-23T15:23:37.872Z,-0.60
2023-01-23T15:28:52.698Z,-0.60
2023-01-23T15:33:56.474Z,-0.60
2023-01-23T15:38:59.790Z,-0.70
2023-01-23T15:44:01.544Z,-0.60
2023-01-23T15:49:04.312Z,-0.70
2023-01-23T15:54:16.988Z,-0.60
2023-01-23T15:59:20.217Z,-0.60
2023-01-23T16:04:21.968Z,-0.70
2023-01-23T16:09:30.851Z,-0.70
2023-01-23T16:14:32.630Z,-0.70
2023-01-23T16:19:34.427Z,-0.70
2023-01-23T16:24:39.432Z,-0.70
2023-01-23T16:29:43.907Z,-0.70
2023-01-23T16:34:45.770Z,-0.80
2023-01-23T16:39:47.913Z,-0.80
2023-01-23T16:44:50.874Z,-0.80
2023-01-23T16:49:54.074Z,-0.70
2023-01-23T16:54:56.187Z,-0.70
2023-01-23T16:59:58.645Z,-0.80
2023-01-23T17:05:00.379Z,-0.80
2023-01-23T17:10:02.138Z,-0.90
2023-01-23T17:15:04.418Z,-0.90
2023-01-23T17:20:06.888Z,-0.90
2023-01-23T17:25:17.294Z,-0.90
2023-01-23T17:30:24.213Z,-0.90
2023-01-23T17:35:32.325Z,-0.90
2023-01-23T17:40:34.500Z,-0.90
2023-01-23T17:45:36.475Z,-1.00
2023-01-23T17:50:38.395Z,-1.00
2023-01-23T17:55:43.572Z,-1.00
2023-01-23T18:00:49.158Z,-1.10
2023-01-23T18:05:50.963Z,-1.10
2023-01-23T18:10:55.329Z,-1.10
2023-01-23T18:16:26.573Z,-1.10
2023-01-23T18:21:28.939Z,-1.10
2023-01-23T18:26:59.679Z,-1.10
2023-01-23T18:32:29.228Z,-1.00
2023-01-23T18:37:44.719Z,-1.10
2023-01-23T18:42:56.790Z,-1.10
2023-01-23T18:47:58.717Z,-1.20
2023-01-23T18:53:28.726Z,-1.20
2023-01-23T18:59:11.528Z,-1.20
2023-01-23T19:04:16.466Z,-1.10
2023-01-23T19:09:20.791Z,-1.20
2023-01-23T19:14:31.443Z,-1.20
2023-01-23T19:19:41.465Z,-1.30
2023-01-23T19:24:43.535Z,-1.30
2023-01-23T19:29:45.365Z,-1.30
2023-01-23T19:34:47.091Z,-1.40
2023-01-23T19:39:48.836Z,-1.50
2023-01-23T19:44:50.540Z,-1.50
2023-01-23T19:49:52.224Z,-1.50
2023-01-23T19:54:54.100Z,-1.50
2023-01-23T19:59:55.947Z,-1.50
2023-01-23T20:04:57.751Z,-1.60
2023-01-23T20:09:59.499Z,-1.60
2023-01-23T20:15:01.271Z,-1.60
2023-01-23T20:20:11.284Z,-1.60
2023-01-23T20:25:15.725Z,-1.50
2023-01-23T20:30:20.271Z,-1.60
2023-01-23T20:35:22.376Z,-1.60
2023-01-23T20:40:24.569Z,-1.60
2023-01-23T20:45:26.739Z,-1.60
2023-01-23T20:50:28.482Z,-1.60
2023-01-23T20:55:30.253Z,-1.50
2023-01-23T21:00:32.513Z,-1.50
2023-01-23T21:05:34.413Z,-1.60
2023-01-23T21:10:36.201Z,-1.60
2023-01-23T21:15:38.006Z,-1.60
2023-01-23T21:20:40.160Z,-1.60
2023-01-23T21:25:41.959Z,-1.60
2023-01-23T21:30:43.743Z,-1.60
2023-01-23T21:35:53.380Z,-1.60
2023-01-23T21:40:55.364Z,-1.60
2023-01-23T21:45:57.852Z,-1.60
2023-01-23T21:51:15.104Z,-1.60
2023-01-23T21:56:19.415Z,-1.70
2023-01-23T22:01:33.119Z,-1.70
2023-01-23T22:06:37.696Z,-1.80
2023-01-23T22:11:39.446Z,-1.80
2023-01-23T22:16:50.248Z,-1.90
2023-01-23T22:21:54.110Z,-2.00
2023-01-23T22:26:55.921Z,-2.00
2023-01-23T22:31:57.823Z,-2.00
2023-01-23T22:36:59.656Z,-1.90
2023-01-23T22:42:02.835Z,-2.00
2023-01-23T22:47:05.111Z,-2.00
2023-01-23T22:52:08.567Z,-1.90
2023-01-23T22:57:11.077Z,-2.00
2023-01-23T23:02:12.818Z,-2.00
2023-01-23T23:07:16.794Z,-2.00
2023-01-23T23:12:18.543Z,-2.00
2023-01-23T23:17:20.320Z,-1.90
2023-01-23T23:22:22.221Z,-1.90
2023-01-23T23:27:23.959Z,-1.90
2023-01-23T23:32:25.703Z,-1.80
2023-01-23T23:37:27.430Z,-1.90
2023-01-23T23:42:29.289Z,-2.00
2023-01-23T23:47:31.112Z,-2.00
2023-01-23T23:52:35.484Z,-2.10
2023-01-23T23:57:37.920Z,-2.00
